sensor_id;sensor_type;location;lat;lon;timestamp;pressure;altitude;pressure_sealevel;temperature;humidity
50684;BME280;36654;45.042;38.994;2022-11-15T00:01:35;102059.31;;;5.24;78.73
50684;BME280;36654;45.042;38.994;2022-11-15T00:04:05;102073.41;;;5.24;78.65
50684;BME280;36654;45.042;38.994;2022-11-15T00:06:31;102067.31;;;5.25;78.45
50684;BME280;36654;45.042;38.994;2022-11-15T00:09:00;102041.00;;;5.09;78.36
50684;BME280;36654;45.042;38.994;2022-11-15T00:11:26;102069.94;;;5.25;78.09
50684;BME280;36654;45.042;38.994;2022-11-15T00:13:55;102068.16;;;5.24;78.11
50684;BME280;36654;45.042;38.994;2022-11-15T00:16:21;102055.63;;;5.20;77.89
50684;BME280;36654;45.042;38.994;2022-11-15T00:18:46;102052.59;;;5.12;78.02
50684;BME280;36654;45.042;38.994;2022-11-15T00:21:13;102059.06;;;5.19;77.80
50684;BME280;36654;45.042;38.994;2022-11-15T00:23:39;101999.34;;;4.84;77.87
50684;BME280;36654;45.042;38.994;2022-11-15T00:26:05;102051.91;;;5.16;77.95
50684;BME280;36654;45.042;38.994;2022-11-15T00:28:31;102034.16;;;4.96;78.05
50684;BME280;36654;45.042;38.994;2022-11-15T00:31:05;101985.63;;;4.73;77.77
50684;BME280;36654;45.042;38.994;2022-11-15T00:33:31;102073.69;;;5.14;77.66
50684;BME280;36654;45.042;38.994;2022-11-15T00:36:08;102009.78;;;4.82;77.44
50684;BME280;36654;45.042;38.994;2022-11-15T00:38:39;102036.91;;;4.97;77.57
50684;BME280;36654;45.042;38.994;2022-11-15T00:41:06;102061.28;;;5.11;77.43
50684;BME280;36654;45.042;38.994;2022-11-15T00:43:32;101984.47;;;4.68;76.89
50684;BME280;36654;45.042;38.994;2022-11-15T00:45:58;102047.66;;;5.02;76.88
50684;BME280;36654;45.042;38.994;2022-11-15T00:48:24;102055.56;;;5.02;76.98
50684;BME280;36654;45.042;38.994;2022-11-15T00:50:50;102037.28;;;4.89;76.91
50684;BME280;36654;45.042;38.994;2022-11-15T00:53:16;102055.34;;;4.99;76.80
50684;BME280;36654;45.042;38.994;2022-11-15T00:55:42;102058.56;;;4.93;76.67
50684;BME280;36654;45.042;38.994;2022-11-15T00:58:08;102036.13;;;4.84;76.67
50684;BME280;36654;45.042;38.994;2022-11-15T01:00:33;102048.00;;;4.92;76.96
50684;BME280;36654;45.042;38.994;2022-11-15T01:03:02;102055.13;;;4.94;76.91
50684;BME280;36654;45.042;38.994;2022-11-15T01:05:28;102057.56;;;4.91;76.91
50684;BME280;36654;45.042;38.994;2022-11-15T01:07:55;102056.34;;;4.85;76.83
50684;BME280;36654;45.042;38.994;2022-11-15T01:10:22;102056.34;;;4.85;76.93
50684;BME280;36654;45.042;38.994;2022-11-15T01:12:49;102057.09;;;4.82;77.19
50684;BME280;36654;45.042;38.994;2022-11-15T01:15:14;102061.34;;;4.80;77.55
50684;BME280;36654;45.042;38.994;2022-11-15T01:17:40;102069.22;;;4.80;77.49
50684;BME280;36654;45.042;38.994;2022-11-15T01:20:06;101990.72;;;4.39;77.40
50684;BME280;36654;45.042;38.994;2022-11-15T01:22:32;102050.41;;;4.72;77.56
50684;BME280;36654;45.042;38.994;2022-11-15T01:24:58;102035.03;;;4.64;77.73
50684;BME280;36654;45.042;38.994;2022-11-15T01:27:24;102051.63;;;4.79;77.68
50684;BME280;36654;45.042;38.994;2022-11-15T01:29:49;102056.00;;;4.79;77.50
50684;BME280;36654;45.042;38.994;2022-11-15T01:32:15;102056.72;;;4.76;77.60
50684;BME280;36654;45.042;38.994;2022-11-15T01:34:41;102036.38;;;4.72;77.39
50684;BME280;36654;45.042;38.994;2022-11-15T01:37:07;102050.31;;;4.71;77.68
50684;BME280;36654;45.042;38.994;2022-11-15T01:39:33;102049.31;;;4.69;77.56
50684;BME280;36654;45.042;38.994;2022-11-15T01:41:58;102012.59;;;4.54;77.41
50684;BME280;36654;45.042;38.994;2022-11-15T01:47:02;102059.44;;;4.78;77.47
50684;BME280;36654;45.042;38.994;2022-11-15T01:49:30;101995.97;;;4.39;77.53
50684;BME280;36654;45.042;38.994;2022-11-15T01:51:58;102061.97;;;4.76;77.63
50684;BME280;36654;45.042;38.994;2022-11-15T01:54:26;101938.06;;;4.04;77.64
50684;BME280;36654;45.042;38.994;2022-11-15T01:57:12;102065.44;;;4.75;77.70
50684;BME280;36654;45.042;38.994;2022-11-15T01:59:40;102063.28;;;4.68;77.84
50684;BME280;36654;45.042;38.994;2022-11-15T02:02:08;102060.66;;;4.68;77.86
50684;BME280;36654;45.042;38.994;2022-11-15T02:04:45;102051.97;;;4.54;77.72
50684;BME280;36654;45.042;38.994;2022-11-15T02:07:13;102068.53;;;4.68;77.79
50684;BME280;36654;45.042;38.994;2022-11-15T02:09:39;102066.53;;;4.64;77.92
50684;BME280;36654;45.042;38.994;2022-11-15T02:12:07;102051.03;;;4.52;78.23
50684;BME280;36654;45.042;38.994;2022-11-15T02:14:36;102062.75;;;4.59;78.33
50684;BME280;36654;45.042;38.994;2022-11-15T02:26:10;102058.63;;;4.47;78.17
50684;BME280;36654;45.042;38.994;2022-11-15T02:31:30;102062.63;;;4.41;78.16
50684;BME280;36654;45.042;38.994;2022-11-15T02:42:28;102058.13;;;4.08;78.09
50684;BME280;36654;45.042;38.994;2022-11-15T02:45:17;102063.19;;;4.05;78.19
50684;BME280;36654;45.042;38.994;2022-11-15T02:47:47;102061.75;;;3.96;78.25
50684;BME280;36654;45.042;38.994;2022-11-15T02:50:19;102062.13;;;3.87;78.61
50684;BME280;36654;45.042;38.994;2022-11-15T02:52:48;102071.97;;;3.91;78.36
50684;BME280;36654;45.042;38.994;2022-11-15T02:55:36;102069.28;;;3.89;78.67
50684;BME280;36654;45.042;38.994;2022-11-15T03:00:54;102052.53;;;3.73;78.67
50684;BME280;36654;45.042;38.994;2022-11-15T03:06:39;102069.78;;;3.69;79.02
50684;BME280;36654;45.042;38.994;2022-11-15T03:11:47;102049.41;;;3.50;79.09
50684;BME280;36654;45.042;38.994;2022-11-15T03:14:24;102067.13;;;3.54;78.84
50684;BME280;36654;45.042;38.994;2022-11-15T03:17:03;102073.03;;;3.50;79.05
50684;BME280;36654;45.042;38.994;2022-11-15T03:22:15;102071.44;;;3.39;79.09
50684;BME280;36654;45.042;38.994;2022-11-15T03:24:43;102075.06;;;3.41;79.17
50684;BME280;36654;45.042;38.994;2022-11-15T03:27:14;102070.66;;;3.40;79.19
50684;BME280;36654;45.042;38.994;2022-11-15T03:29:53;102067.09;;;3.39;79.20
50684;BME280;36654;45.042;38.994;2022-11-15T03:32:24;102072.09;;;3.35;78.95
50684;BME280;36654;45.042;38.994;2022-11-15T03:35:05;102064.94;;;3.32;78.79
50684;BME280;36654;45.042;38.994;2022-11-15T03:37:44;102056.78;;;3.28;78.59
50684;BME280;36654;45.042;38.994;2022-11-15T03:40:11;102046.44;;;3.16;78.55
50684;BME280;36654;45.042;38.994;2022-11-15T03:43:30;102061.84;;;3.24;78.41
50684;BME280;36654;45.042;38.994;2022-11-15T03:46:01;102052.59;;;3.16;78.30
50684;BME280;36654;45.042;38.994;2022-11-15T03:48:34;102071.09;;;3.19;78.27
50684;BME280;36654;45.042;38.994;2022-11-15T03:51:03;102064.91;;;3.17;78.41
50684;BME280;36654;45.042;38.994;2022-11-15T03:53:29;102063.50;;;3.09;78.48
50684;BME280;36654;45.042;38.994;2022-11-15T03:55:56;102028.47;;;2.94;78.56
50684;BME280;36654;45.042;38.994;2022-11-15T03:58:21;102055.03;;;3.13;78.81
50684;BME280;36654;45.042;38.994;2022-11-15T04:00:47;102059.25;;;3.11;78.53
50684;BME280;36654;45.042;38.994;2022-11-15T04:03:13;102051.63;;;3.01;78.55
50684;BME280;36654;45.042;38.994;2022-11-15T04:05:38;102074.59;;;3.05;78.71
50684;BME280;36654;45.042;38.994;2022-11-15T04:08:04;102022.47;;;2.81;78.79
50684;BME280;36654;45.042;38.994;2022-11-15T04:10:29;102067.34;;;3.01;78.91
50684;BME280;36654;45.042;38.994;2022-11-15T04:12:55;102050.84;;;2.89;78.90
50684;BME280;36654;45.042;38.994;2022-11-15T04:15:23;102062.63;;;2.95;78.85
50684;BME280;36654;45.042;38.994;2022-11-15T04:17:51;102067.34;;;3.01;79.00
50684;BME280;36654;45.042;38.994;2022-11-15T04:23:07;102084.88;;;3.02;79.42
50684;BME280;36654;45.042;38.994;2022-11-15T04:25:54;102076.03;;;3.00;79.53
50684;BME280;36654;45.042;38.994;2022-11-15T04:28:21;102087.06;;;3.09;79.53
50684;BME280;36654;45.042;38.994;2022-11-15T04:30:47;102088.72;;;3.07;79.44
50684;BME280;36654;45.042;38.994;2022-11-15T04:33:13;102088.91;;;3.10;79.52
50684;BME280;36654;45.042;38.994;2022-11-15T04:35:39;102077.72;;;3.13;79.55
50684;BME280;36654;45.042;38.994;2022-11-15T04:38:06;102067.94;;;3.10;79.54
50684;BME280;36654;45.042;38.994;2022-11-15T04:40:33;102074.06;;;3.11;79.41
50684;BME280;36654;45.042;38.994;2022-11-15T04:42:58;102089.66;;;3.22;79.42
50684;BME280;36654;45.042;38.994;2022-11-15T04:45:24;102069.91;;;3.14;79.22
50684;BME280;36654;45.042;38.994;2022-11-15T04:47:49;102071.56;;;3.12;79.13
50684;BME280;36654;45.042;38.994;2022-11-15T04:50:16;102090.47;;;3.21;78.68
50684;BME280;36654;45.042;38.994;2022-11-15T04:52:43;102082.22;;;3.15;78.77
50684;BME280;36654;45.042;38.994;2022-11-15T04:55:10;102081.50;;;3.18;78.86
50684;BME280;36654;45.042;38.994;2022-11-15T04:57:36;102042.41;;;2.93;78.75
50684;BME280;36654;45.042;38.994;2022-11-15T05:00:08;102062.94;;;3.00;78.53
50684;BME280;36654;45.042;38.994;2022-11-15T05:02:34;102093.97;;;3.07;78.66
50684;BME280;36654;45.042;38.994;2022-11-15T05:05:18;102111.06;;;3.02;78.65
50684;BME280;36654;45.042;38.994;2022-11-15T05:07:44;102105.06;;;2.90;78.99
50684;BME280;36654;45.042;38.994;2022-11-15T05:10:09;102119.38;;;2.81;79.25
50684;BME280;36654;45.042;38.994;2022-11-15T05:12:35;102114.53;;;2.74;79.65
50684;BME280;36654;45.042;38.994;2022-11-15T05:15:01;102088.78;;;2.54;80.41
50684;BME280;36654;45.042;38.994;2022-11-15T05:17:27;102105.91;;;2.62;80.64
50684;BME280;36654;45.042;38.994;2022-11-15T05:19:52;102107.09;;;2.54;80.91
50684;BME280;36654;45.042;38.994;2022-11-15T05:22:18;102050.16;;;2.23;81.25
50684;BME280;36654;45.042;38.994;2022-11-15T05:24:44;102117.56;;;2.54;81.63
50684;BME280;36654;45.042;38.994;2022-11-15T05:27:10;102126.44;;;2.56;81.65
50684;BME280;36654;45.042;38.994;2022-11-15T05:29:35;102117.50;;;2.52;82.04
50684;BME280;36654;45.042;38.994;2022-11-15T05:32:03;102123.94;;;2.57;81.99
50684;BME280;36654;45.042;38.994;2022-11-15T05:34:30;102127.47;;;2.58;81.97
50684;BME280;36654;45.042;38.994;2022-11-15T05:36:56;102111.84;;;2.46;82.01
50684;BME280;36654;45.042;38.994;2022-11-15T05:39:21;102136.22;;;2.58;82.50
50684;BME280;36654;45.042;38.994;2022-11-15T05:42:04;102115.88;;;2.54;82.58
50684;BME280;36654;45.042;38.994;2022-11-15T05:44:34;102126.25;;;2.66;82.74
50684;BME280;36654;45.042;38.994;2022-11-15T05:47:03;102127.94;;;2.79;82.69
50684;BME280;36654;45.042;38.994;2022-11-15T05:49:34;102125.81;;;2.87;82.56
50684;BME280;36654;45.042;38.994;2022-11-15T05:52:00;102135.66;;;3.04;82.27
50684;BME280;36654;45.042;38.994;2022-11-15T05:54:26;102124.47;;;3.07;82.29
50684;BME280;36654;45.042;38.994;2022-11-15T05:56:52;102138.06;;;3.14;82.22
50684;BME280;36654;45.042;38.994;2022-11-15T05:59:19;102130.00;;;3.24;81.88
50684;BME280;36654;45.042;38.994;2022-11-15T06:01:45;102114.28;;;3.24;81.78
50684;BME280;36654;45.042;38.994;2022-11-15T06:04:10;102070.97;;;3.03;81.53
50684;BME280;36654;45.042;38.994;2022-11-15T06:06:36;102134.53;;;3.42;81.39
50684;BME280;36654;45.042;38.994;2022-11-15T06:09:02;102119.75;;;3.42;81.48
50684;BME280;36654;45.042;38.994;2022-11-15T06:11:27;102133.34;;;3.50;81.42
50684;BME280;36654;45.042;38.994;2022-11-15T06:13:53;102119.31;;;3.50;81.27
50684;BME280;36654;45.042;38.994;2022-11-15T06:16:19;102110.75;;;3.52;81.27
50684;BME280;36654;45.042;38.994;2022-11-15T06:18:45;102099.50;;;3.40;81.26
50684;BME280;36654;45.042;38.994;2022-11-15T06:21:10;102128.84;;;3.62;81.35
50684;BME280;36654;45.042;38.994;2022-11-15T06:23:36;102126.00;;;3.59;81.37
50684;BME280;36654;45.042;38.994;2022-11-15T06:26:02;102140.09;;;3.75;81.35
50684;BME280;36654;45.042;38.994;2022-11-15T06:28:32;102131.41;;;3.76;81.66
50684;BME280;36654;45.042;38.994;2022-11-15T06:31:09;102106.78;;;3.74;81.46
50684;BME280;36654;45.042;38.994;2022-11-15T06:33:39;102074.78;;;3.64;81.61
50684;BME280;36654;45.042;38.994;2022-11-15T06:36:07;102067.88;;;3.66;81.41
50684;BME280;36654;45.042;38.994;2022-11-15T06:38:33;102125.81;;;3.99;81.65
50684;BME280;36654;45.042;38.994;2022-11-15T06:41:04;102073.34;;;3.70;81.58
50684;BME280;36654;45.042;38.994;2022-11-15T06:43:31;102119.38;;;3.94;81.63
50684;BME280;36654;45.042;38.994;2022-11-15T06:45:58;102128.63;;;4.02;81.79
50684;BME280;36654;45.042;38.994;2022-11-15T06:48:25;102115.69;;;4.05;81.98
50684;BME280;36654;45.042;38.994;2022-11-15T06:50:58;102148.47;;;4.27;82.07
50684;BME280;36654;45.042;38.994;2022-11-15T06:53:24;102146.09;;;4.31;82.17
50684;BME280;36654;45.042;38.994;2022-11-15T06:55:50;102145.75;;;4.40;82.31
50684;BME280;36654;45.042;38.994;2022-11-15T06:58:16;102127.00;;;4.34;82.26
50684;BME280;36654;45.042;38.994;2022-11-15T07:00:42;102080.69;;;4.05;82.10
50684;BME280;36654;45.042;38.994;2022-11-15T07:03:08;102144.91;;;4.41;82.30
50684;BME280;36654;45.042;38.994;2022-11-15T07:05:35;102127.38;;;4.40;82.48
50684;BME280;36654;45.042;38.994;2022-11-15T07:08:01;102098.31;;;4.37;82.30
50684;BME280;36654;45.042;38.994;2022-11-15T07:10:27;102137.00;;;4.71;82.09
50684;BME280;36654;45.042;38.994;2022-11-15T07:12:54;102118.19;;;4.63;81.93
50684;BME280;36654;45.042;38.994;2022-11-15T07:15:26;102140.06;;;4.79;81.75
50684;BME280;36654;45.042;38.994;2022-11-15T07:17:52;102109.94;;;4.72;81.81
50684;BME280;36654;45.042;38.994;2022-11-15T07:20:18;102110.38;;;4.80;81.52
50684;BME280;36654;45.042;38.994;2022-11-15T07:22:43;102118.31;;;4.81;81.48
50684;BME280;36654;45.042;38.994;2022-11-15T07:25:12;102103.84;;;4.73;81.42
50684;BME280;36654;45.042;38.994;2022-11-15T07:27:38;102129.19;;;4.87;81.61
50684;BME280;36654;45.042;38.994;2022-11-15T07:30:04;102134.63;;;4.90;81.51
50684;BME280;36654;45.042;38.994;2022-11-15T07:32:30;102104.00;;;4.76;81.46
50684;BME280;36654;45.042;38.994;2022-11-15T07:34:56;102129.34;;;4.90;81.47
50684;BME280;36654;45.042;38.994;2022-11-15T07:37:21;102107.63;;;4.78;81.37
50684;BME280;36654;45.042;38.994;2022-11-15T07:39:47;102122.09;;;4.86;81.28
50684;BME280;36654;45.042;38.994;2022-11-15T07:42:13;102125.56;;;4.85;81.24
50684;BME280;36654;45.042;38.994;2022-11-15T07:44:57;102108.69;;;4.82;81.46
50684;BME280;36654;45.042;38.994;2022-11-15T07:47:23;102103.84;;;4.73;81.65
50684;BME280;36654;45.042;38.994;2022-11-15T07:49:48;102058.97;;;4.53;81.61
50684;BME280;36654;45.042;38.994;2022-11-15T07:52:14;102130.19;;;4.89;81.58
50684;BME280;36654;45.042;38.994;2022-11-15T07:54:39;102114.31;;;4.88;81.40
50684;BME280;36654;45.042;38.994;2022-11-15T07:57:05;102113.75;;;4.93;81.14
50684;BME280;36654;45.042;38.994;2022-11-15T07:59:32;102117.38;;;4.95;81.43
50684;BME280;36654;45.042;38.994;2022-11-15T08:01:58;102121.31;;;5.04;80.97
50684;BME280;36654;45.042;38.994;2022-11-15T08:04:24;102060.19;;;4.75;80.83
50684;BME280;36654;45.042;38.994;2022-11-15T08:06:49;102101.03;;;5.01;80.54
50684;BME280;36654;45.042;38.994;2022-11-15T08:09:15;102097.03;;;5.08;80.14
50684;BME280;36654;45.042;38.994;2022-11-15T08:11:41;102101.66;;;5.12;79.87
50684;BME280;36654;45.042;38.994;2022-11-15T08:14:06;102090.13;;;5.10;79.41
50684;BME280;36654;45.042;38.994;2022-11-15T08:16:32;102117.25;;;5.25;79.08
50684;BME280;36654;45.042;38.994;2022-11-15T08:18:58;102103.13;;;5.23;78.36
50684;BME280;36654;45.042;38.994;2022-11-15T08:21:24;102112.16;;;5.28;77.40
50684;BME280;36654;45.042;38.994;2022-11-15T08:23:49;102116.78;;;5.32;76.27
50684;BME280;36654;45.042;38.994;2022-11-15T08:26:15;102059.50;;;5.10;74.87
50684;BME280;36654;45.042;38.994;2022-11-15T08:28:42;102104.72;;;5.52;73.71
50684;BME280;36654;45.042;38.994;2022-11-15T08:31:13;102105.44;;;5.66;73.46
50684;BME280;36654;45.042;38.994;2022-11-15T08:33:40;102106.22;;;5.81;73.11
50684;BME280;36654;45.042;38.994;2022-11-15T08:36:05;102070.88;;;5.76;72.72
50684;BME280;36654;45.042;38.994;2022-11-15T08:38:31;102115.06;;;6.16;71.55
50684;BME280;36654;45.042;38.994;2022-11-15T08:41:03;102115.69;;;6.29;70.21
50684;BME280;36654;45.042;38.994;2022-11-15T08:43:29;102090.44;;;6.32;69.87
50684;BME280;36654;45.042;38.994;2022-11-15T08:45:56;102090.28;;;6.47;69.13
50684;BME280;36654;45.042;38.994;2022-11-15T08:48:22;102095.81;;;6.52;68.12
50684;BME280;36654;45.042;38.994;2022-11-15T08:50:47;102032.34;;;6.29;67.69
50684;BME280;36654;45.042;38.994;2022-11-15T08:53:13;102084.25;;;6.67;66.62
50684;BME280;36654;45.042;38.994;2022-11-15T08:55:40;102054.44;;;6.68;65.95
50684;BME280;36654;45.042;38.994;2022-11-15T08:58:06;101997.78;;;6.41;65.54
50684;BME280;36654;45.042;38.994;2022-11-15T09:00:32;102049.63;;;6.78;65.15
50684;BME280;36654;45.042;38.994;2022-11-15T09:02:58;102064.59;;;6.79;65.16
50684;BME280;36654;45.042;38.994;2022-11-15T09:05:25;102034.06;;;6.64;64.81
50684;BME280;36654;45.042;38.994;2022-11-15T09:07:54;102043.31;;;6.74;64.22
50684;BME280;36654;45.042;38.994;2022-11-15T09:10:20;102064.06;;;6.86;62.87
50684;BME280;36654;45.042;38.994;2022-11-15T09:12:46;102058.50;;;6.80;62.46
50684;BME280;36654;45.042;38.994;2022-11-15T09:15:14;102051.66;;;6.65;61.17
50684;BME280;36654;45.042;38.994;2022-11-15T09:17:40;102050.69;;;6.63;60.29
50684;BME280;36654;45.042;38.994;2022-11-15T09:20:07;102005.53;;;6.38;60.19
50684;BME280;36654;45.042;38.994;2022-11-15T09:22:33;102071.75;;;6.63;58.86
50684;BME280;36654;45.042;38.994;2022-11-15T09:24:58;102060.84;;;6.56;59.00
50684;BME280;36654;45.042;38.994;2022-11-15T09:27:31;102059.09;;;6.56;58.70
50684;BME280;36654;45.042;38.994;2022-11-15T09:29:57;102044.53;;;6.45;58.56
50684;BME280;36654;45.042;38.994;2022-11-15T09:32:22;102045.44;;;6.45;58.28
50684;BME280;36654;45.042;38.994;2022-11-15T09:34:49;102055.34;;;6.51;58.21
50684;BME280;36654;45.042;38.994;2022-11-15T09:37:15;102045.13;;;6.57;58.40
50684;BME280;36654;45.042;38.994;2022-11-15T09:39:40;102045.25;;;6.60;58.78
50684;BME280;36654;45.042;38.994;2022-11-15T09:44:51;102050.38;;;6.75;59.23
50684;BME280;36654;45.042;38.994;2022-11-15T09:47:37;102041.84;;;6.81;59.68
50684;BME280;36654;45.042;38.994;2022-11-15T09:50:17;102037.69;;;6.86;59.53
50684;BME280;36654;45.042;38.994;2022-11-15T09:52:46;102003.69;;;6.73;59.16
50684;BME280;36654;45.042;38.994;2022-11-15T09:55:14;102021.41;;;6.95;59.08
50684;BME280;36654;45.042;38.994;2022-11-15T10:00:21;102015.66;;;7.03;58.76
50684;BME280;36654;45.042;38.994;2022-11-15T10:03:30;102012.19;;;7.04;59.05
50684;BME280;36654;45.042;38.994;2022-11-15T10:06:01;101998.50;;;6.94;59.27
50684;BME280;36654;45.042;38.994;2022-11-15T10:08:43;101955.34;;;6.72;59.32
50684;BME280;36654;45.042;38.994;2022-11-15T10:11:33;101991.53;;;6.94;59.32
50684;BME280;36654;45.042;38.994;2022-11-15T10:14:16;102010.53;;;7.06;59.68
50684;BME280;36654;45.042;38.994;2022-11-15T10:16:56;102012.59;;;7.13;59.71
50684;BME280;36654;45.042;38.994;2022-11-15T10:22:12;101995.81;;;7.11;60.23
50684;BME280;36654;45.042;38.994;2022-11-15T10:24:42;101997.53;;;7.11;60.77
50684;BME280;36654;45.042;38.994;2022-11-15T10:27:13;102002.22;;;7.17;60.91
50684;BME280;36654;45.042;38.994;2022-11-15T10:29:47;101992.69;;;7.20;61.36
50684;BME280;36654;45.042;38.994;2022-11-15T10:32:16;101995.41;;;7.22;61.66
50684;BME280;36654;45.042;38.994;2022-11-15T10:34:42;101984.97;;;7.25;61.94
50684;BME280;36654;45.042;38.994;2022-11-15T10:37:08;101993.72;;;7.24;62.42
50684;BME280;36654;45.042;38.994;2022-11-15T10:39:34;102000.03;;;7.27;62.78
50684;BME280;36654;45.042;38.994;2022-11-15T10:42:18;101965.13;;;7.13;63.04
50684;BME280;36654;45.042;38.994;2022-11-15T10:44:50;101991.38;;;7.30;63.41
50684;BME280;36654;45.042;38.994;2022-11-15T10:47:25;101991.50;;;7.33;63.09
50684;BME280;36654;45.042;38.994;2022-11-15T10:50:05;101979.16;;;7.32;62.60
50684;BME280;36654;45.042;38.994;2022-11-15T10:52:34;101988.97;;;7.36;62.41
50684;BME280;36654;45.042;38.994;2022-11-15T10:55:22;101983.44;;;7.30;62.16
50684;BME280;36654;45.042;38.994;2022-11-15T10:57:55;101985.41;;;7.34;61.52
50684;BME280;36654;45.042;38.994;2022-11-15T11:05:34;101982.16;;;7.41;61.23
50684;BME280;36654;45.042;38.994;2022-11-15T11:10:58;101972.03;;;7.50;60.38
50684;BME280;36654;45.042;38.994;2022-11-15T11:13:38;101967.59;;;7.49;59.92
50684;BME280;36654;45.042;38.994;2022-11-15T11:21:43;101965.97;;;7.53;59.45
50684;BME280;36654;45.042;38.994;2022-11-15T11:27:13;101963.00;;;7.45;59.71
50684;BME280;36654;45.042;38.994;2022-11-15T11:30:17;101961.34;;;7.47;59.98
50684;BME280;36654;45.042;38.994;2022-11-15T11:46:58;101909.59;;;7.30;60.63
50684;BME280;36654;45.042;38.994;2022-11-15T11:49:55;101942.03;;;7.48;60.70
50684;BME280;36654;45.042;38.994;2022-11-15T11:52:34;101951.69;;;7.48;60.90
50684;BME280;36654;45.042;38.994;2022-11-15T11:55:22;101931.56;;;7.50;61.07
50684;BME280;36654;45.042;38.994;2022-11-15T12:00:38;101936.06;;;7.52;60.91
50684;BME280;36654;45.042;38.994;2022-11-15T12:05:59;101926.41;;;7.53;61.24
50684;BME280;36654;45.042;38.994;2022-11-15T12:11:11;101925.06;;;7.63;60.87
50684;BME280;36654;45.042;38.994;2022-11-15T12:13:39;101894.53;;;7.48;60.88
50684;BME280;36654;45.042;38.994;2022-11-15T12:16:27;101921.84;;;7.70;60.94
50684;BME280;36654;45.042;38.994;2022-11-15T12:18:55;101925.44;;;7.72;60.45
50684;BME280;36654;45.042;38.994;2022-11-15T12:21:28;101915.97;;;7.77;60.50
50684;BME280;36654;45.042;38.994;2022-11-15T12:24:04;101912.56;;;7.80;60.19
50684;BME280;36654;45.042;38.994;2022-11-15T12:26:38;101914.13;;;7.74;59.91
50684;BME280;36654;45.042;38.994;2022-11-15T12:29:15;101920.38;;;7.76;59.77
50684;BME280;36654;45.042;38.994;2022-11-15T12:31:45;101892.53;;;7.64;59.83
50684;BME280;36654;45.042;38.994;2022-11-15T12:36:46;101924.13;;;7.83;59.65
50684;BME280;36654;45.042;38.994;2022-11-15T12:39:13;101864.22;;;7.60;59.68
50684;BME280;36654;45.042;38.994;2022-11-15T12:41:41;101870.31;;;7.59;59.39
50684;BME280;36654;45.042;38.994;2022-11-15T12:49:42;101912.81;;;7.86;58.92
50684;BME280;36654;45.042;38.994;2022-11-15T12:52:09;101917.97;;;7.83;58.78
50684;BME280;36654;45.042;38.994;2022-11-15T13:02:35;101899.25;;;7.76;58.17
50684;BME280;36654;45.042;38.994;2022-11-15T13:17:54;101886.31;;;7.62;58.03
50684;BME280;36654;45.042;38.994;2022-11-15T13:20:29;101885.34;;;7.60;58.16
50684;BME280;36654;45.042;38.994;2022-11-15T13:31:27;101878.66;;;7.47;58.84
50684;BME280;36654;45.042;38.994;2022-11-15T13:33:57;101858.78;;;7.34;59.03
50684;BME280;36654;45.042;38.994;2022-11-15T13:36:29;101817.31;;;7.10;58.86
50684;BME280;36654;45.042;38.994;2022-11-15T13:39:01;101874.59;;;7.34;59.15
50684;BME280;36654;45.042;38.994;2022-11-15T13:41:33;101868.94;;;7.25;59.07
50684;BME280;36654;45.042;38.994;2022-11-15T13:44:00;101864.53;;;7.25;59.39
50684;BME280;36654;45.042;38.994;2022-11-15T13:46:33;101867.88;;;7.21;59.40
50684;BME280;36654;45.042;38.994;2022-11-15T13:49:08;101809.19;;;6.85;59.29
50684;BME280;36654;45.042;38.994;2022-11-15T13:54:26;101819.88;;;6.88;59.91
50684;BME280;36654;45.042;38.994;2022-11-15T13:57:09;101857.59;;;7.06;60.14
50684;BME280;36654;45.042;38.994;2022-11-15T14:00:03;101804.16;;;6.70;60.26
50684;BME280;36654;45.042;38.994;2022-11-15T14:02:33;101835.56;;;6.85;60.28
50684;BME280;36654;45.042;38.994;2022-11-15T14:05:04;101861.56;;;6.97;60.34
50684;BME280;36654;45.042;38.994;2022-11-15T14:07:37;101833.50;;;6.78;60.23
50684;BME280;36654;45.042;38.994;2022-11-15T14:12:54;101851.25;;;6.82;60.33
50684;BME280;36654;45.042;38.994;2022-11-15T14:15:33;101846.91;;;6.84;60.51
50684;BME280;36654;45.042;38.994;2022-11-15T14:17:59;101844.03;;;6.78;60.61
50684;BME280;36654;45.042;38.994;2022-11-15T14:22:53;101818.09;;;6.67;61.06
50684;BME280;36654;45.042;38.994;2022-11-15T14:25:20;101820.63;;;6.64;61.21
50684;BME280;36654;45.042;38.994;2022-11-15T14:30:33;101808.00;;;6.57;61.35
50684;BME280;36654;45.042;38.994;2022-11-15T14:32:59;101813.53;;;6.63;61.31
50684;BME280;36654;45.042;38.994;2022-11-15T14:35:25;101736.06;;;6.19;61.65
50684;BME280;36654;45.042;38.994;2022-11-15T14:37:50;101755.88;;;6.31;61.86
50684;BME280;36654;45.042;38.994;2022-11-15T14:40:18;101825.94;;;6.66;61.98
50684;BME280;36654;45.042;38.994;2022-11-15T14:42:45;101811.44;;;6.56;62.30
50684;BME280;36654;45.042;38.994;2022-11-15T14:45:17;101762.97;;;6.32;62.27
50684;BME280;36654;45.042;38.994;2022-11-15T14:47:43;101786.25;;;6.42;62.43
50684;BME280;36654;45.042;38.994;2022-11-15T14:50:17;101737.44;;;6.11;62.71
50684;BME280;36654;45.042;38.994;2022-11-15T14:52:43;101824.78;;;6.59;62.72
50684;BME280;36654;45.042;38.994;2022-11-15T14:57:42;101788.78;;;6.40;63.01
50684;BME280;36654;45.042;38.994;2022-11-15T15:00:08;101804.81;;;6.45;63.16
50684;BME280;36654;45.042;38.994;2022-11-15T15:02:35;101784.94;;;6.32;63.26
50684;BME280;36654;45.042;38.994;2022-11-15T15:05:07;101771.34;;;6.23;63.75
50684;BME280;36654;45.042;38.994;2022-11-15T15:07:38;101834.91;;;6.50;63.96
50684;BME280;36654;45.042;38.994;2022-11-15T15:10:04;101778.34;;;6.22;64.04
50684;BME280;36654;45.042;38.994;2022-11-15T15:12:29;101828.50;;;6.45;64.24
50684;BME280;36654;45.042;38.994;2022-11-15T15:14:55;101764.75;;;6.13;64.18
50684;BME280;36654;45.042;38.994;2022-11-15T15:17:21;101804.34;;;6.34;64.46